createdAt,value
2017-07-22T00:00:44.831Z,0
2017-07-22T00:01:44.841Z,0
2017-07-22T00:02:44.837Z,0
2017-07-22T00:03:44.815Z,0
2017-07-22T00:04:44.545Z,0
2017-07-22T00:05:44.849Z,0
2017-07-22T00:06:44.544Z,0
2017-07-22T00:07:44.851Z,0
2017-07-22T00:08:44.841Z,0
2017-07-22T00:09:44.845Z,0
2017-07-22T00:10:44.856Z,0
2017-07-22T00:11:44.856Z,0
2017-07-22T00:12:44.550Z,0
2017-07-22T00:13:44.907Z,0
2017-07-22T00:14:44.857Z,0
2017-07-22T00:15:44.550Z,0
2017-07-22T00:16:44.877Z,0
2017-07-22T00:17:44.261Z,0
2017-07-22T00:18:44.272Z,0
2017-07-22T00:19:44.571Z,0
2017-07-22T00:20:44.874Z,0
2017-07-22T00:21:44.872Z,0
2017-07-22T00:22:44.874Z,0
2017-07-22T00:23:44.891Z,0
2017-07-22T00:24:44.877Z,0
2017-07-22T00:25:44.281Z,0
2017-07-22T00:26:44.915Z,0
2017-07-22T00:27:44.885Z,0
2017-07-22T00:28:45.886Z,0
2017-07-22T00:29:44.884Z,0
2017-07-22T00:30:44.313Z,0
2017-07-22T00:31:44.298Z,0
2017-07-22T00:32:44.919Z,0
2017-07-22T00:33:44.948Z,0
2017-07-22T00:34:44.911Z,0
2017-07-22T00:35:44.626Z,0
2017-07-22T00:36:44.915Z,0
2017-07-22T00:37:44.329Z,0
2017-07-22T00:38:44.619Z,0
2017-07-22T00:39:44.932Z,0
2017-07-22T00:40:44.925Z,0
2017-07-22T00:41:44.927Z,0
2017-07-22T00:42:44.933Z,0
2017-07-22T00:43:44.930Z,0
2017-07-22T00:44:45.242Z,0
2017-07-22T00:45:44.953Z,0
2017-07-22T00:46:44.942Z,0
2017-07-22T00:47:44.349Z,0
2017-07-22T00:48:44.648Z,0
2017-07-22T00:49:44.652Z,0
2017-07-22T00:50:44.663Z,0
2017-07-22T00:51:44.967Z,0
2017-07-22T00:52:44.357Z,0
2017-07-22T00:53:44.662Z,0
2017-07-22T00:54:44.363Z,0
2017-07-22T00:55:44.667Z,0
2017-07-22T00:56:44.975Z,0
2017-07-22T00:57:44.993Z,0
2017-07-22T00:58:44.680Z,0
2017-07-22T00:59:45.982Z,0
2017-07-22T01:00:44.998Z,0
2017-07-22T01:01:44.698Z,0
2017-07-22T01:02:44.682Z,0
2017-07-22T01:03:44.690Z,0
2017-07-22T01:04:44.999Z,0
2017-07-22T01:05:44.708Z,0
2017-07-22T01:06:44.703Z,0
2017-07-22T01:07:45.015Z,0
2017-07-22T01:08:44.408Z,0
2017-07-22T01:09:45.012Z,0
2017-07-22T01:10:44.713Z,0
2017-07-22T01:11:44.163Z,0
2017-07-22T01:12:45.017Z,0
2017-07-22T01:13:44.777Z,0
2017-07-22T01:14:45.287Z,0
2017-07-22T01:15:45.033Z,0
2017-07-22T01:16:45.055Z,0
2017-07-22T01:17:44.741Z,0
2017-07-22T01:18:44.731Z,0
2017-07-22T01:19:45.031Z,0
2017-07-22T01:20:44.734Z,0
2017-07-22T01:21:44.762Z,0
2017-07-22T01:22:44.775Z,0
2017-07-22T01:23:44.764Z,0
2017-07-22T01:24:44.766Z,0
2017-07-22T01:25:45.058Z,0
2017-07-22T01:26:44.778Z,0
2017-07-22T01:27:44.777Z,0
2017-07-22T01:28:45.063Z,0
2017-07-22T01:29:47.619Z,0
2017-07-22T01:30:44.789Z,0
2017-07-22T01:31:45.076Z,0
2017-07-22T01:32:45.083Z,0
2017-07-22T01:33:44.826Z,0
2017-07-22T01:34:44.791Z,0
2017-07-22T01:35:45.089Z,0
2017-07-22T01:36:44.783Z,0
2017-07-22T01:37:45.097Z,0
2017-07-22T01:38:44.791Z,0
2017-07-22T01:39:44.794Z,0
2017-07-22T01:40:44.794Z,0
2017-07-22T01:41:45.102Z,0
2017-07-22T01:42:44.812Z,0
2017-07-22T01:43:45.103Z,0
2017-07-22T01:44:45.068Z,0
2017-07-22T01:45:44.812Z,0
2017-07-22T01:46:44.806Z,0
2017-07-22T01:47:45.131Z,0
2017-07-22T01:48:44.820Z,0
2017-07-22T01:49:44.540Z,0
2017-07-22T01:50:44.841Z,0
2017-07-22T01:51:45.146Z,0
2017-07-22T01:52:44.849Z,0
2017-07-22T01:53:45.139Z,0
2017-07-22T01:54:45.144Z,0
2017-07-22T01:55:44.849Z,0
2017-07-22T01:56:45.150Z,0
2017-07-22T01:57:44.846Z,0
2017-07-22T01:58:44.858Z,0
2017-07-22T01:59:45.348Z,0
2017-07-22T02:00:45.151Z,0
2017-07-22T02:01:45.160Z,0
2017-07-22T02:02:45.154Z,0
2017-07-22T02:03:44.850Z,0
2017-07-22T02:04:44.862Z,0
2017-07-22T02:05:44.867Z,0
2017-07-22T02:06:45.173Z,0
2017-07-22T02:07:45.169Z,0
2017-07-22T02:08:44.574Z,0
2017-07-22T02:09:44.891Z,0
2017-07-22T02:10:45.313Z,0
2017-07-22T02:11:45.178Z,0
2017-07-22T02:12:45.220Z,0
2017-07-22T02:13:45.220Z,0
2017-07-22T02:14:45.250Z,0
2017-07-22T02:15:44.618Z,0
2017-07-22T02:16:45.206Z,0
2017-07-22T02:17:44.908Z,0
2017-07-22T02:18:45.196Z,0
2017-07-22T02:19:45.211Z,0
2017-07-22T02:20:44.908Z,0
2017-07-22T02:21:45.216Z,0
2017-07-22T02:22:45.209Z,0
2017-07-22T02:23:44.911Z,0
2017-07-22T02:24:44.611Z,0
2017-07-22T02:25:44.934Z,0
2017-07-22T02:26:45.220Z,0
2017-07-22T02:27:44.926Z,0
2017-07-22T02:28:45.229Z,0
2017-07-22T02:29:46.429Z,0
2017-07-22T02:30:44.936Z,0
2017-07-22T02:31:44.944Z,0
2017-07-22T02:32:45.260Z,0
2017-07-22T02:33:44.950Z,0
2017-07-22T02:34:44.946Z,0
2017-07-22T02:35:44.947Z,0
2017-07-22T02:36:44.947Z,0
2017-07-22T02:37:45.253Z,0
2017-07-22T02:38:45.269Z,0
2017-07-22T02:39:45.258Z,0
2017-07-22T02:40:45.262Z,0
2017-07-22T02:41:45.261Z,0
2017-07-22T02:42:45.264Z,0
2017-07-22T02:43:45.285Z,0
2017-07-22T02:44:45.275Z,0
2017-07-22T02:45:45.334Z,0
2017-07-22T02:46:45.354Z,0
2017-07-22T02:47:45.331Z,0
2017-07-22T02:48:44.682Z,0
2017-07-22T02:49:44.688Z,0
2017-07-22T02:50:44.693Z,0
2017-07-22T02:51:44.687Z,0
2017-07-22T02:52:44.998Z,0
2017-07-22T02:53:45.296Z,0
2017-07-22T02:54:44.996Z,0
2017-07-22T02:55:44.992Z,0
2017-07-22T02:56:45.020Z,0
2017-07-22T02:57:45.315Z,0
2017-07-22T02:58:45.310Z,0
2017-07-22T02:59:45.019Z,0
2017-07-22T03:00:46.514Z,0
2017-07-22T03:01:45.027Z,0
2017-07-22T03:02:45.329Z,0
2017-07-22T03:03:45.029Z,0
2017-07-22T03:04:45.035Z,0
2017-07-22T03:05:45.044Z,0
2017-07-22T03:06:45.031Z,0
2017-07-22T03:07:45.332Z,0
2017-07-22T03:08:44.749Z,0
2017-07-22T03:09:45.335Z,0
2017-07-22T03:10:45.039Z,0
2017-07-22T03:11:45.048Z,0
2017-07-22T03:12:45.346Z,0
2017-07-22T03:13:45.041Z,0
2017-07-22T03:14:45.347Z,0
2017-07-22T03:15:45.113Z,0
2017-07-22T03:16:45.061Z,0
2017-07-22T03:17:45.364Z,0
2017-07-22T03:18:45.070Z,0
2017-07-22T03:19:45.360Z,0
2017-07-22T03:20:45.377Z,0
2017-07-22T03:21:45.076Z,0
2017-07-22T03:22:45.113Z,0
2017-07-22T03:23:45.369Z,0
2017-07-22T03:24:45.376Z,0
2017-07-22T03:25:45.120Z,0
2017-07-22T03:26:45.105Z,0
2017-07-22T03:27:45.384Z,0
2017-07-22T03:28:45.093Z,0
2017-07-22T03:29:45.394Z,0
2017-07-22T03:30:46.105Z,0
2017-07-22T03:31:45.119Z,0
2017-07-22T03:32:45.394Z,0
2017-07-22T03:33:45.403Z,0
2017-07-22T03:34:45.405Z,0
2017-07-22T03:35:45.412Z,0
2017-07-22T03:36:45.420Z,0
2017-07-22T03:37:45.423Z,0
2017-07-22T03:38:45.151Z,0
2017-07-22T03:39:45.416Z,0
2017-07-22T03:40:45.416Z,0
2017-07-22T03:41:45.127Z,0
2017-07-22T03:42:45.426Z,0
2017-07-22T03:43:45.425Z,0
2017-07-22T03:44:45.428Z,0
2017-07-22T03:45:48.714Z,0
2017-07-22T03:46:45.442Z,0
2017-07-22T03:47:45.137Z,0
2017-07-22T03:48:45.445Z,0
2017-07-22T03:49:45.442Z,5
2017-07-22T03:50:45.156Z,5
2017-07-22T03:51:45.155Z,5
2017-07-22T03:52:45.154Z,5
2017-07-22T03:53:45.456Z,5
2017-07-22T03:54:45.160Z,5
2017-07-22T03:55:45.465Z,5
2017-07-22T03:56:45.465Z,5
2017-07-22T03:57:45.176Z,5
2017-07-22T03:58:45.465Z,5
2017-07-22T03:59:45.165Z,10
2017-07-22T04:00:47.573Z,10
2017-07-22T04:01:45.483Z,10
2017-07-22T04:02:45.477Z,10
2017-07-22T04:03:45.486Z,10
2017-07-22T04:04:45.199Z,10
2017-07-22T04:05:44.582Z,10
2017-07-22T04:06:45.289Z,10
2017-07-22T04:07:45.196Z,10
2017-07-22T04:08:45.200Z,10
2017-07-22T04:09:45.499Z,10
2017-07-22T04:10:45.214Z,10
2017-07-22T04:11:45.204Z,10
2017-07-22T04:12:45.508Z,10
2017-07-22T04:13:45.213Z,10
2017-07-22T04:14:45.511Z,10
2017-07-22T04:15:45.214Z,15
2017-07-22T04:16:45.425Z,15
2017-07-22T04:17:45.224Z,15
2017-07-22T04:18:45.227Z,15
2017-07-22T04:19:45.525Z,15
2017-07-22T04:20:45.540Z,15
2017-07-22T04:21:45.524Z,15
2017-07-22T04:22:45.540Z,15
2017-07-22T04:23:45.555Z,15
2017-07-22T04:24:45.544Z,15
2017-07-22T04:25:45.544Z,15
2017-07-22T04:26:45.557Z,15
2017-07-22T04:27:45.556Z,15
2017-07-22T04:28:45.581Z,15
2017-07-22T04:29:45.559Z,15
2017-07-22T04:30:45.558Z,15
2017-07-22T04:31:45.953Z,15
2017-07-22T04:32:45.566Z,15
2017-07-22T04:33:45.286Z,15
2017-07-22T04:34:45.269Z,15
2017-07-22T04:35:45.605Z,20
2017-07-22T04:36:45.285Z,20
2017-07-22T04:37:45.582Z,20
2017-07-22T04:38:45.587Z,20
2017-07-22T04:39:45.582Z,20
2017-07-22T04:40:45.591Z,20
2017-07-22T04:41:45.396Z,20
2017-07-22T04:42:45.604Z,20
2017-07-22T04:43:45.616Z,20
2017-07-22T04:44:45.605Z,20
2017-07-22T04:45:45.624Z,20
2017-07-22T04:46:45.909Z,20
2017-07-22T04:47:45.691Z,20
2017-07-22T04:48:45.317Z,20
2017-07-22T04:49:45.312Z,20
2017-07-22T04:50:45.622Z,20
2017-07-22T04:51:45.319Z,25
2017-07-22T04:52:45.619Z,25
2017-07-22T04:53:45.629Z,30
2017-07-22T04:54:45.623Z,30
2017-07-22T04:55:45.629Z,30
2017-07-22T04:56:45.627Z,35
2017-07-22T04:57:45.633Z,35
2017-07-22T04:58:45.665Z,40
2017-07-22T04:59:45.040Z,45
2017-07-22T05:00:45.668Z,50
2017-07-22T05:01:51.007Z,60
2017-07-22T05:02:45.040Z,60
2017-07-22T05:03:45.351Z,65
2017-07-22T05:04:45.668Z,65
2017-07-22T05:05:45.668Z,70
2017-07-22T05:06:45.365Z,70
2017-07-22T05:07:45.355Z,75
2017-07-22T05:08:45.669Z,80
2017-07-22T05:09:45.670Z,85
2017-07-22T05:10:45.695Z,85
2017-07-22T05:11:45.679Z,85
2017-07-22T05:12:45.381Z,90
2017-07-22T05:13:45.378Z,135
2017-07-22T05:14:45.692Z,185
2017-07-22T05:15:45.399Z,110
2017-07-22T05:16:45.762Z,100
2017-07-22T05:17:45.401Z,100
2017-07-22T05:18:45.696Z,100
2017-07-22T05:19:45.709Z,100
2017-07-22T05:20:45.709Z,100
2017-07-22T05:21:45.451Z,100
2017-07-22T05:22:45.714Z,100
2017-07-22T05:23:45.416Z,95
2017-07-22T05:24:45.722Z,100
2017-07-22T05:25:45.419Z,100
2017-07-22T05:26:45.755Z,105
2017-07-22T05:27:45.815Z,150
2017-07-22T05:28:45.430Z,160
2017-07-22T05:29:45.739Z,210
2017-07-22T05:30:45.741Z,285
2017-07-22T05:31:47.644Z,325
2017-07-22T05:32:45.785Z,325
2017-07-22T05:33:45.768Z,325
2017-07-22T05:34:45.752Z,200
2017-07-22T05:35:45.453Z,220
2017-07-22T05:36:45.772Z,325
2017-07-22T05:37:45.772Z,345
2017-07-22T05:38:45.474Z,335
2017-07-22T05:39:45.177Z,335
2017-07-22T05:40:45.481Z,340
2017-07-22T05:41:45.809Z,345
2017-07-22T05:42:45.799Z,350
2017-07-22T05:43:45.804Z,350
2017-07-22T05:44:45.811Z,150
2017-07-22T05:45:45.814Z,150
2017-07-22T05:46:45.881Z,150
2017-07-22T05:47:45.838Z,150
2017-07-22T05:48:45.845Z,150
2017-07-22T05:49:45.536Z,155
2017-07-22T05:50:45.567Z,155
2017-07-22T05:51:45.245Z,155
2017-07-22T05:52:45.580Z,155
2017-07-22T05:53:45.252Z,160
2017-07-22T05:54:45.886Z,155
2017-07-22T05:55:45.877Z,165
2017-07-22T05:56:45.571Z,160
2017-07-22T05:57:45.601Z,160
2017-07-22T05:58:45.590Z,160
2017-07-22T05:59:45.605Z,170
2017-07-22T06:00:45.918Z,170
2017-07-22T06:01:46.850Z,180
2017-07-22T06:02:45.609Z,185
2017-07-22T06:03:45.918Z,190
2017-07-22T06:04:45.915Z,200
2017-07-22T06:05:45.914Z,215
2017-07-22T06:06:45.938Z,225
2017-07-22T06:07:45.632Z,245
2017-07-22T06:08:45.928Z,260
2017-07-22T06:09:45.641Z,275
2017-07-22T06:10:45.944Z,285
2017-07-22T06:11:45.948Z,290
2017-07-22T06:12:45.675Z,310
2017-07-22T06:13:45.700Z,325
2017-07-22T06:14:45.717Z,330
2017-07-22T06:15:45.685Z,330
2017-07-22T06:16:45.724Z,335
2017-07-22T06:17:46.713Z,335
2017-07-22T06:18:45.726Z,335
2017-07-22T06:19:45.167Z,335
2017-07-22T06:20:45.993Z,340
2017-07-22T06:21:46.004Z,360
2017-07-22T06:22:46.016Z,345
2017-07-22T06:23:45.439Z,350
2017-07-22T06:24:45.735Z,345
2017-07-22T06:25:46.028Z,345
2017-07-22T06:26:46.041Z,355
2017-07-22T06:27:46.077Z,355
2017-07-22T06:28:45.795Z,345
2017-07-22T06:29:46.071Z,345
2017-07-22T06:30:45.773Z,345
2017-07-22T06:31:46.076Z,350
2017-07-22T06:32:46.489Z,350
2017-07-22T06:33:46.104Z,350
2017-07-22T06:34:46.111Z,360
2017-07-22T06:35:46.117Z,350
2017-07-22T06:36:45.819Z,350
2017-07-22T06:37:45.838Z,350
2017-07-22T06:38:50.028Z,345
2017-07-22T06:39:50.330Z,345
2017-07-22T06:40:48.174Z,345
2017-07-22T06:41:49.738Z,345
2017-07-22T06:42:49.352Z,340
2017-07-22T06:43:49.488Z,340
2017-07-22T06:44:48.748Z,335
2017-07-22T06:45:48.836Z,335
2017-07-22T06:46:48.096Z,330
2017-07-22T06:47:50.175Z,330
2017-07-22T06:48:50.280Z,330
2017-07-22T06:49:49.621Z,325
2017-07-22T06:50:48.415Z,325
2017-07-22T06:51:48.508Z,310
2017-07-22T06:52:49.349Z,300
2017-07-22T06:53:48.700Z,295
2017-07-22T06:54:49.190Z,305
2017-07-22T06:55:49.296Z,300
2017-07-22T06:56:49.996Z,355
2017-07-22T06:57:48.790Z,350
2017-07-22T06:58:48.568Z,355
2017-07-22T06:59:49.645Z,355
2017-07-22T07:00:48.386Z,355
2017-07-22T07:01:49.448Z,365
2017-07-22T07:02:50.588Z,355
2017-07-22T07:03:46.370Z,365
2017-07-22T07:04:46.114Z,355
2017-07-22T07:05:46.385Z,355
2017-07-22T07:06:46.091Z,355
2017-07-22T07:07:45.813Z,355
2017-07-22T07:08:46.125Z,355
2017-07-22T07:09:46.127Z,350
2017-07-22T07:10:46.134Z,350
2017-07-22T07:11:46.438Z,345
2017-07-22T07:12:46.158Z,345
2017-07-22T07:13:45.860Z,340
2017-07-22T07:14:46.176Z,330
2017-07-22T07:15:46.480Z,325
2017-07-22T07:16:46.180Z,320
2017-07-22T07:17:46.521Z,315
2017-07-22T07:18:48.306Z,310
2017-07-22T07:19:46.241Z,315
2017-07-22T07:20:46.240Z,310
2017-07-22T07:21:46.553Z,300
2017-07-22T07:22:46.550Z,300
2017-07-22T07:23:46.280Z,315
2017-07-22T07:24:46.277Z,325
2017-07-22T07:25:46.278Z,325
2017-07-22T07:26:46.587Z,325
2017-07-22T07:27:46.290Z,320
2017-07-22T07:28:46.602Z,335
2017-07-22T07:29:46.651Z,345
2017-07-22T07:30:46.031Z,345
2017-07-22T07:31:46.628Z,345
2017-07-22T07:32:46.629Z,345
2017-07-22T07:33:50.599Z,365
2017-07-22T07:34:46.355Z,345
2017-07-22T07:35:46.065Z,345
2017-07-22T07:36:46.370Z,345
2017-07-22T07:37:46.695Z,345
2017-07-22T07:38:46.691Z,345
2017-07-22T07:39:46.718Z,340
2017-07-22T07:40:46.415Z,340
2017-07-22T07:41:46.118Z,335
2017-07-22T07:42:46.439Z,340
2017-07-22T07:43:46.732Z,320
2017-07-22T07:44:46.753Z,335
2017-07-22T07:45:46.773Z,350
2017-07-22T07:46:46.169Z,355
2017-07-22T07:47:46.784Z,355
2017-07-22T07:48:46.844Z,360
2017-07-22T07:49:46.492Z,365
2017-07-22T07:50:46.517Z,365
2017-07-22T07:51:46.823Z,365
2017-07-22T07:52:46.526Z,365
2017-07-22T07:53:46.849Z,355
2017-07-22T07:54:46.854Z,350
2017-07-22T07:55:46.857Z,355
2017-07-22T07:56:46.870Z,355
2017-07-22T07:57:46.891Z,360
2017-07-22T07:58:46.896Z,360
2017-07-22T07:59:46.598Z,360
2017-07-22T08:00:46.426Z,360
2017-07-22T08:01:48.801Z,355
2017-07-22T08:02:46.948Z,355
2017-07-22T08:03:50.243Z,345
2017-07-22T08:04:46.962Z,345
2017-07-22T08:05:46.373Z,340
2017-07-22T08:06:46.988Z,350
2017-07-22T08:07:46.687Z,350
2017-07-22T08:08:46.400Z,350
2017-07-22T08:09:46.408Z,345
2017-07-22T08:10:46.707Z,345
2017-07-22T08:11:46.114Z,355
2017-07-22T08:12:47.034Z,355
2017-07-22T08:13:47.063Z,365
2017-07-22T08:14:46.762Z,365
2017-07-22T08:15:46.760Z,360
2017-07-22T08:16:47.081Z,355
2017-07-22T08:17:47.090Z,350
2017-07-22T08:18:46.806Z,350
2017-07-22T08:19:47.153Z,350
2017-07-22T08:20:46.846Z,345
2017-07-22T08:21:46.819Z,345
2017-07-22T08:22:47.159Z,335
2017-07-22T08:23:47.150Z,310
2017-07-22T08:24:46.860Z,210
2017-07-22T08:25:47.170Z,210
2017-07-22T08:26:47.183Z,200
2017-07-22T08:27:47.232Z,185
2017-07-22T08:28:47.200Z,180
2017-07-22T08:29:46.598Z,180
2017-07-22T08:30:46.915Z,190
2017-07-22T08:31:47.220Z,195
2017-07-22T08:32:47.249Z,175
2017-07-22T08:33:46.952Z,180
2017-07-22T08:34:47.256Z,190
2017-07-22T08:35:47.254Z,185
2017-07-22T08:36:47.265Z,180
2017-07-22T08:37:47.286Z,180
2017-07-22T08:38:46.674Z,185
2017-07-22T08:39:46.984Z,185
2017-07-22T08:40:47.005Z,185
2017-07-22T08:41:47.310Z,190
2017-07-22T08:42:47.316Z,200
2017-07-22T08:43:47.312Z,310
2017-07-22T08:44:47.323Z,315
2017-07-22T08:45:46.722Z,315
2017-07-22T08:46:47.332Z,205
2017-07-22T08:47:47.346Z,280
2017-07-22T08:48:47.357Z,325
2017-07-22T08:49:47.419Z,325
2017-07-22T08:50:47.364Z,235
2017-07-22T08:51:46.776Z,325
2017-07-22T08:52:47.384Z,320
2017-07-22T08:53:47.380Z,320
2017-07-22T08:54:47.080Z,255
2017-07-22T08:55:47.426Z,215
2017-07-22T08:56:47.432Z,220
2017-07-22T08:57:47.425Z,200
2017-07-22T08:58:46.885Z,195
2017-07-22T08:59:47.428Z,190
2017-07-22T09:00:47.472Z,185
2017-07-22T09:01:47.483Z,185
2017-07-22T09:02:47.151Z,185
2017-07-22T09:03:47.186Z,190
2017-07-22T09:04:49.067Z,205
2017-07-22T09:05:47.169Z,250
2017-07-22T09:06:47.187Z,200
2017-07-22T09:07:47.179Z,290
2017-07-22T09:08:47.505Z,275
2017-07-22T09:09:47.508Z,225
2017-07-22T09:10:47.524Z,200
2017-07-22T09:11:47.530Z,205
2017-07-22T09:12:47.219Z,205
2017-07-22T09:13:47.523Z,285
2017-07-22T09:14:47.537Z,285
2017-07-22T09:15:47.534Z,280
2017-07-22T09:16:47.270Z,280
2017-07-22T09:17:47.564Z,285
2017-07-22T09:18:46.951Z,285
2017-07-22T09:19:49.241Z,285
2017-07-22T09:20:47.269Z,285
2017-07-22T09:21:47.272Z,290
2017-07-22T09:22:46.968Z,290
2017-07-22T09:23:47.574Z,290
2017-07-22T09:24:47.714Z,290
2017-07-22T09:25:47.291Z,295
2017-07-22T09:26:47.602Z,300
2017-07-22T09:27:47.323Z,295
2017-07-22T09:28:47.629Z,295
2017-07-22T09:29:47.620Z,300
2017-07-22T09:30:47.331Z,305
2017-07-22T09:31:47.335Z,300
2017-07-22T09:32:47.333Z,290
2017-07-22T09:33:47.348Z,290
2017-07-22T09:34:48.662Z,285
2017-07-22T09:35:47.653Z,290
2017-07-22T09:36:47.369Z,285
2017-07-22T09:37:47.072Z,285
2017-07-22T09:38:47.371Z,290
2017-07-22T09:39:47.427Z,290
2017-07-22T09:40:47.175Z,290
2017-07-22T09:41:47.407Z,290
2017-07-22T09:42:47.123Z,295
2017-07-22T09:43:47.718Z,290
2017-07-22T09:44:47.715Z,295
2017-07-22T09:45:47.718Z,300
2017-07-22T09:46:46.841Z,305
2017-07-22T09:47:47.431Z,305
2017-07-22T09:48:47.436Z,305
2017-07-22T09:49:47.503Z,300
2017-07-22T09:50:47.153Z,305
2017-07-22T09:51:47.466Z,310
2017-07-22T09:52:47.755Z,315
2017-07-22T09:53:47.473Z,325
2017-07-22T09:54:47.772Z,325
2017-07-22T09:55:47.174Z,330
2017-07-22T09:56:47.782Z,335
2017-07-22T09:57:47.792Z,330
2017-07-22T09:58:47.793Z,330
2017-07-22T09:59:47.503Z,335
2017-07-22T10:00:47.529Z,340
2017-07-22T10:01:47.513Z,335
2017-07-22T10:02:47.835Z,325
2017-07-22T10:03:47.539Z,325
2017-07-22T10:04:49.746Z,320
2017-07-22T10:05:47.569Z,310
2017-07-22T10:06:47.553Z,310
2017-07-22T10:07:47.856Z,300
2017-07-22T10:08:47.569Z,295
2017-07-22T10:09:46.967Z,290
2017-07-22T10:10:47.577Z,295
2017-07-22T10:11:47.907Z,305
2017-07-22T10:12:47.897Z,315
2017-07-22T10:13:47.892Z,320
2017-07-22T10:14:47.912Z,335
2017-07-22T10:15:47.914Z,345
2017-07-22T10:16:47.612Z,350
2017-07-22T10:17:47.613Z,360
2017-07-22T10:18:47.011Z,360
2017-07-22T10:19:47.028Z,345
2017-07-22T10:20:49.903Z,335
2017-07-22T10:21:47.959Z,325
2017-07-22T10:22:47.960Z,310
2017-07-22T10:23:47.665Z,315
2017-07-22T10:24:47.665Z,305
2017-07-22T10:25:47.375Z,330
2017-07-22T10:26:48.433Z,335
2017-07-22T10:27:47.989Z,345
2017-07-22T10:28:47.995Z,350
2017-07-22T10:29:48.275Z,355
2017-07-22T10:30:48.019Z,345
2017-07-22T10:31:48.042Z,340
2017-07-22T10:32:48.053Z,330
2017-07-22T10:33:47.727Z,335
2017-07-22T10:34:47.733Z,345
2017-07-22T10:35:49.346Z,345
2017-07-22T10:36:48.062Z,355
2017-07-22T10:37:48.231Z,355
2017-07-22T10:38:47.465Z,350
2017-07-22T10:39:47.776Z,360
2017-07-22T10:40:47.860Z,360
2017-07-22T10:41:48.115Z,350
2017-07-22T10:42:48.109Z,345
2017-07-22T10:43:48.123Z,355
2017-07-22T10:44:47.811Z,350
2017-07-22T10:45:48.113Z,355
2017-07-22T10:46:47.812Z,360
2017-07-22T10:47:47.823Z,355
2017-07-22T10:48:48.131Z,350
2017-07-22T10:49:48.135Z,310
2017-07-22T10:50:47.904Z,350
2017-07-22T10:51:48.191Z,290
2017-07-22T10:52:47.932Z,285
2017-07-22T10:53:47.946Z,290
2017-07-22T10:54:48.185Z,295
2017-07-22T10:55:48.194Z,315
2017-07-22T10:56:48.201Z,355
2017-07-22T10:57:48.221Z,355
2017-07-22T10:58:47.943Z,345
2017-07-22T10:59:48.233Z,335
2017-07-22T11:00:47.944Z,335
2017-07-22T11:01:48.226Z,345
2017-07-22T11:02:48.255Z,350
2017-07-22T11:03:47.959Z,340
2017-07-22T11:04:47.989Z,360
2017-07-22T11:05:52.468Z,360
2017-07-22T11:06:48.056Z,370
2017-07-22T11:07:47.966Z,370
2017-07-22T11:08:47.968Z,370
2017-07-22T11:09:47.976Z,370
2017-07-22T11:10:48.299Z,365
2017-07-22T11:11:48.336Z,345
2017-07-22T11:12:47.736Z,335
2017-07-22T11:13:48.333Z,350
2017-07-22T11:14:48.338Z,345
2017-07-22T11:15:48.333Z,330
2017-07-22T11:16:48.335Z,340
2017-07-22T11:17:48.037Z,335
2017-07-22T11:18:48.044Z,335
2017-07-22T11:19:47.757Z,345
2017-07-22T11:20:48.464Z,365
2017-07-22T11:21:48.386Z,380
2017-07-22T11:22:48.062Z,375
2017-07-22T11:23:48.400Z,375
2017-07-22T11:24:47.772Z,375
2017-07-22T11:25:48.405Z,375
2017-07-22T11:26:48.427Z,345
2017-07-22T11:27:48.424Z,355
2017-07-22T11:28:48.113Z,380
2017-07-22T11:29:48.137Z,380
2017-07-22T11:30:48.439Z,380
2017-07-22T11:31:47.608Z,380
2017-07-22T11:32:48.144Z,375
2017-07-22T11:33:48.457Z,380
2017-07-22T11:34:48.457Z,370
2017-07-22T11:35:52.171Z,365
2017-07-22T11:36:49.975Z,365
2017-07-22T11:37:49.055Z,370
2017-07-22T11:38:50.205Z,380
2017-07-22T11:39:50.622Z,375
2017-07-22T11:40:49.120Z,370
2017-07-22T11:41:48.480Z,360
2017-07-22T11:42:47.783Z,355
2017-07-22T11:43:47.632Z,355
2017-07-22T11:44:47.931Z,355
2017-07-22T11:45:48.551Z,350
2017-07-22T11:46:48.239Z,355
2017-07-22T11:47:48.256Z,360
2017-07-22T11:48:48.251Z,335
2017-07-22T11:49:48.273Z,370
2017-07-22T11:50:48.274Z,375
2017-07-22T11:51:48.923Z,375
2017-07-22T11:52:48.299Z,375
2017-07-22T11:53:48.580Z,370
2017-07-22T11:54:48.314Z,360
2017-07-22T11:55:48.613Z,355
2017-07-22T11:56:48.617Z,345
2017-07-22T11:57:50.009Z,335
2017-07-22T11:58:49.001Z,330
2017-07-22T11:59:48.722Z,315
2017-07-22T12:00:49.189Z,320
2017-07-22T12:02:39.416Z,325
2017-07-22T12:02:49.307Z,330
2017-07-22T12:03:49.653Z,325
2017-07-22T12:04:49.648Z,325
2017-07-22T12:05:49.358Z,320
2017-07-22T12:06:51.208Z,325
2017-07-22T12:07:49.660Z,315
2017-07-22T12:08:49.666Z,310
2017-07-22T12:09:49.006Z,305
2017-07-22T12:10:49.297Z,260
2017-07-22T12:11:49.315Z,260
2017-07-22T12:12:49.604Z,265
2017-07-22T12:13:49.318Z,280
2017-07-22T12:14:49.641Z,315
2017-07-22T12:15:49.645Z,330
2017-07-22T12:16:49.648Z,300
2017-07-22T12:17:49.658Z,290
2017-07-22T12:18:49.656Z,290
2017-07-22T12:19:48.759Z,290
2017-07-22T12:20:49.378Z,340
2017-07-22T12:21:49.724Z,340
2017-07-22T12:22:49.679Z,340
2017-07-22T12:23:49.410Z,345
2017-07-22T12:24:49.417Z,300
2017-07-22T12:25:49.408Z,335
2017-07-22T12:26:49.704Z,330
2017-07-22T12:27:49.821Z,330
2017-07-22T12:28:49.293Z,325
2017-07-22T12:29:49.733Z,325
2017-07-22T12:30:48.854Z,320
2017-07-22T12:31:49.510Z,310
2017-07-22T12:32:49.760Z,315
2017-07-22T12:33:49.758Z,310
2017-07-22T12:34:49.767Z,315
2017-07-22T12:35:49.843Z,320
2017-07-22T12:36:50.602Z,295
2017-07-22T12:37:49.881Z,270
2017-07-22T12:38:49.791Z,270
2017-07-22T12:39:49.870Z,270
2017-07-22T12:40:49.228Z,280
2017-07-22T12:41:49.522Z,290
2017-07-22T12:42:49.542Z,320
2017-07-22T12:43:49.850Z,320
2017-07-22T12:44:49.845Z,295
2017-07-22T12:45:49.848Z,335
2017-07-22T12:46:49.553Z,350
2017-07-22T12:47:49.574Z,310
2017-07-22T12:48:49.869Z,295
2017-07-22T12:49:49.870Z,275
2017-07-22T12:50:49.286Z,305
2017-07-22T12:51:49.636Z,260
2017-07-22T12:52:49.916Z,295
2017-07-22T12:53:49.612Z,270
2017-07-22T12:54:49.932Z,270
2017-07-22T12:55:49.944Z,265
2017-07-22T12:56:49.633Z,260
2017-07-22T12:57:49.634Z,250
2017-07-22T12:58:49.645Z,240
2017-07-22T12:59:49.677Z,235
2017-07-22T13:00:49.662Z,235
2017-07-22T13:01:49.377Z,245
2017-07-22T13:02:49.990Z,275
2017-07-22T13:03:49.468Z,295
2017-07-22T13:04:49.727Z,310
2017-07-22T13:05:49.700Z,295
2017-07-22T13:06:50.403Z,300
2017-07-22T13:07:49.713Z,275
2017-07-22T13:08:49.717Z,255
2017-07-22T13:09:50.041Z,260
2017-07-22T13:10:50.050Z,280
2017-07-22T13:11:49.914Z,295
2017-07-22T13:12:49.733Z,305
2017-07-22T13:13:49.748Z,310
2017-07-22T13:14:50.041Z,300
2017-07-22T13:15:50.289Z,295
2017-07-22T13:16:50.000Z,290
2017-07-22T13:17:50.330Z,290
2017-07-22T13:18:50.031Z,295
2017-07-22T13:19:49.592Z,310
2017-07-22T13:20:50.439Z,310
2017-07-22T13:21:50.263Z,315
2017-07-22T13:22:50.119Z,325
2017-07-22T13:23:49.810Z,320
2017-07-22T13:24:49.843Z,305
2017-07-22T13:25:49.851Z,290
2017-07-22T13:26:49.851Z,280
2017-07-22T13:27:50.158Z,270
2017-07-22T13:28:50.161Z,260
2017-07-22T13:29:50.171Z,235
2017-07-22T13:30:50.169Z,245
2017-07-22T13:31:50.188Z,225
2017-07-22T13:32:49.876Z,220
2017-07-22T13:33:50.218Z,220
2017-07-22T13:34:50.203Z,220
2017-07-22T13:35:50.220Z,235
2017-07-22T13:36:52.124Z,235
2017-07-22T13:37:50.234Z,250
2017-07-22T13:38:49.937Z,270
2017-07-22T13:39:50.236Z,270
2017-07-22T13:40:49.652Z,265
2017-07-22T13:41:50.241Z,265
2017-07-22T13:42:50.262Z,250
2017-07-22T13:43:50.256Z,240
2017-07-22T13:44:49.959Z,235
2017-07-22T13:45:49.682Z,230
2017-07-22T13:46:50.012Z,230
2017-07-22T13:47:49.679Z,245
2017-07-22T13:48:49.997Z,245
2017-07-22T13:49:50.287Z,245
2017-07-22T13:50:51.491Z,260
2017-07-22T13:51:51.131Z,250
2017-07-22T13:52:52.834Z,240
2017-07-22T13:53:50.567Z,220
2017-07-22T13:54:50.031Z,210
2017-07-22T13:55:50.114Z,190
2017-07-22T13:56:50.349Z,180
2017-07-22T13:57:49.439Z,180
2017-07-22T13:58:50.053Z,170
2017-07-22T13:59:49.745Z,165
2017-07-22T14:00:49.752Z,170
2017-07-22T14:01:50.397Z,200
2017-07-22T14:02:50.368Z,230
2017-07-22T14:03:50.086Z,245
2017-07-22T14:04:50.389Z,260
2017-07-22T14:05:50.412Z,280